Time;durP1;ratioP1;P1;durP2;ratioP2;P2;SDS_P1;SDS_P2;PMS_P1;PMS_P2;Temp;Humidity;BMP_temperature;BMP_pressure;BME280_temperature;BME280_humidity;BME280_pressure;Samples;Min_cycle;Max_cycle;Signal;HPM_P1;HPM_P2
2022/04/22 00:01:05;;;;;;;6.60;3.72;;;10.10;85.10;;;;;;1910746;75;21038;-60
2022/04/22 00:03:34;;;;;;;16.57;9.35;;;10.00;85.20;;;;;;1958782;73;21019;-60
2022/04/22 00:06:04;;;;;;;9.38;4.58;;;10.00;85.30;;;;;;1958674;73;21014;-60
2022/04/22 00:08:33;;;;;;;5.45;4.58;;;9.90;85.40;;;;;;1910753;75;21096;-60
2022/04/22 00:13:50;;;;;;;4.60;3.40;;;9.80;85.50;;;;;;1910747;75;21101;-62
2022/04/22 00:16:19;;;;;;;3.35;2.77;;;9.70;85.90;;;;;;1958656;73;21002;-62
2022/04/22 00:18:49;;;;;;;8.30;2.58;;;9.70;86.20;;;;;;1910773;75;21051;-62
2022/04/22 00:21:20;;;;;;;4.28;2.30;;;9.60;86.70;;;;;;1958618;73;20998;-59
2022/04/22 00:23:49;;;;;;;3.22;2.25;;;9.50;87.10;;;;;;1910614;75;21140;-59
2022/04/22 00:26:19;;;;;;;3.40;2.17;;;9.40;86.80;;;;;;1958645;73;21026;-59
2022/04/22 00:28:49;;;;;;;5.12;3.30;;;9.40;87.40;;;;;;1910895;75;21088;-59
2022/04/22 00:31:18;;;;;;;8.20;3.22;;;9.30;86.90;;;;;;1958814;73;21112;-59
2022/04/22 00:33:47;;;;;;;3.95;3.10;;;9.30;86.50;;;;;;1910679;75;21148;-59
2022/04/22 00:36:17;;;;;;;6.90;3.75;;;9.30;86.50;;;;;;1958587;73;21147;-59
2022/04/22 00:38:46;;;;;;;6.72;3.83;;;9.30;87.40;;;;;;1910672;75;21093;-59
2022/04/22 00:41:15;;;;;;;5.58;3.87;;;9.20;87.80;;;;;;1958727;73;21031;-59
2022/04/22 00:43:49;;;;;;;4.25;3.05;;;9.20;87.00;;;;;;1910816;75;21156;-59
2022/04/22 00:46:18;;;;;;;6.58;3.67;;;9.20;87.60;;;;;;1958595;73;21041;-59
2022/04/22 00:48:48;;;;;;;6.10;2.92;;;9.20;88.40;;;;;;1910699;75;21152;-59
2022/04/22 00:51:18;;;;;;;4.35;3.30;;;9.20;87.90;;;;;;1958599;73;21088;-59
2022/04/22 00:53:49;;;;;;;4.83;3.12;;;9.20;87.30;;;;;;1910720;75;21066;-59
2022/04/22 00:56:18;;;;;;;3.98;2.92;;;9.20;87.80;;;;;;1958692;73;20994;-59
2022/04/22 00:58:49;;;;;;;4.97;3.10;;;9.10;87.40;;;;;;1910702;75;21140;-59
2022/04/22 01:01:19;;;;;;;3.00;2.67;;;9.20;87.70;;;;;;1958590;73;21020;-59
2022/04/22 01:12:12;;;;;;;9.53;4.35;;;9.10;87.60;;;;;;1958707;73;21022;-59
2022/04/22 01:14:41;;;;;;;5.58;4.20;;;9.20;87.70;;;;;;1910717;75;21047;-59
2022/04/22 01:17:11;;;;;;;8.20;4.33;;;9.10;87.90;;;;;;1958762;73;21018;-59
2022/04/22 01:19:41;;;;;;;6.10;4.67;;;9.20;87.40;;;;;;1911001;75;21027;-59
2022/04/22 01:22:11;;;;;;;6.47;3.58;;;9.20;87.50;;;;;;1958572;73;21125;-59
2022/04/22 01:24:40;;;;;;;6.25;3.98;;;9.30;87.30;;;;;;1910575;75;21034;-59
2022/04/22 01:27:10;;;;;;;5.70;3.90;;;9.30;87.40;;;;;;1958644;73;21077;-59
2022/04/22 01:29:41;;;;;;;5.85;4.40;;;9.40;87.40;;;;;;1908846;75;21484;-59
2022/04/22 01:32:11;;;;;;;5.30;3.95;;;9.40;87.30;;;;;;1958704;73;21026;-59
2022/04/22 01:34:42;;;;;;;6.03;3.65;;;9.50;87.60;;;;;;1910563;75;21195;-59
2022/04/22 01:37:12;;;;;;;5.80;4.00;;;9.50;87.20;;;;;;1958688;73;21022;-59
2022/04/22 01:39:41;;;;;;;4.92;3.30;;;9.60;87.30;;;;;;1910716;75;21112;-59
2022/04/22 01:42:10;;;;;;;3.77;2.80;;;9.60;87.30;;;;;;1958685;73;21112;-59
2022/04/22 01:44:40;;;;;;;8.00;3.40;;;9.70;87.50;;;;;;1910563;75;21047;-59
2022/04/22 01:47:09;;;;;;;3.95;3.10;;;9.70;87.40;;;;;;1958567;73;21080;-59
2022/04/22 01:49:38;;;;;;;6.50;3.77;;;9.70;87.30;;;;;;1910557;75;21081;-59
2022/04/22 01:52:08;;;;;;;4.50;3.02;;;9.70;87.40;;;;;;1958677;73;21057;-59
2022/04/22 01:54:38;;;;;;;5.22;3.20;;;9.70;87.40;;;;;;1910562;75;21058;-59
2022/04/22 01:57:07;;;;;;;4.12;3.42;;;9.70;87.40;;;;;;1958679;73;21018;-59
2022/04/22 01:59:36;;;;;;;5.20;3.30;;;9.70;87.40;;;;;;1910555;75;21022;-59
2022/04/22 02:02:06;;;;;;;4.72;3.10;;;9.80;87.50;;;;;;1958573;73;21155;-59
2022/04/22 02:04:35;;;;;;;5.70;4.42;;;9.70;87.50;;;;;;1910527;75;21023;-59
2022/04/22 02:07:05;;;;;;;4.97;4.10;;;9.80;87.50;;;;;;1958668;73;21026;-59
2022/04/22 02:09:34;;;;;;;5.50;3.40;;;9.80;87.40;;;;;;1910653;75;21031;-59
2022/04/22 02:12:04;;;;;;;6.67;3.80;;;9.70;87.30;;;;;;1958497;73;21034;-59
2022/04/22 02:14:33;;;;;;;12.20;9.00;;;9.70;87.40;;;;;;1910555;75;21022;-59
2022/04/22 02:17:03;;;;;;;4.80;4.08;;;9.70;87.30;;;;;;1958675;73;21038;-59
2022/04/22 02:19:33;;;;;;;6.55;4.40;;;9.70;87.40;;;;;;1910589;75;21003;-59
2022/04/22 02:22:02;;;;;;;6.35;4.90;;;9.60;87.30;;;;;;1958560;73;21022;-59
2022/04/22 02:24:31;;;;;;;5.55;4.08;;;9.50;87.50;;;;;;1910533;75;21031;-59
2022/04/22 02:29:48;;;;;;;5.08;3.90;;;9.50;87.90;;;;;;1898784;75;21172;-59
2022/04/22 02:32:18;;;;;;;5.53;4.30;;;9.50;88.00;;;;;;1935653;74;21449;-59
2022/04/22 02:34:48;;;;;;;7.17;4.45;;;9.50;87.90;;;;;;1935606;74;21059;-59
2022/04/22 02:37:17;;;;;;;5.83;4.87;;;9.60;87.90;;;;;;1935675;74;21015;-59
2022/04/22 02:39:46;;;;;;;6.87;4.92;;;9.60;87.80;;;;;;1935649;74;21027;-59
2022/04/22 02:47:51;;;;;;;5.30;4.35;;;9.60;87.70;;;;;;1935685;74;21027;-62
2022/04/22 02:50:20;;;;;;;6.53;4.20;;;9.60;87.60;;;;;;1935608;74;21019;-62
2022/04/22 02:52:49;;;;;;;7.45;4.47;;;9.50;87.40;;;;;;1935614;74;21026;-59
2022/04/22 02:55:19;;;;;;;5.65;4.28;;;9.50;87.30;;;;;;1935583;74;21085;-59
2022/04/22 02:57:49;;;;;;;5.58;4.05;;;9.50;87.40;;;;;;1935633;74;21136;-59
2022/04/22 03:00:18;;;;;;;5.47;4.05;;;9.40;88.10;;;;;;1935554;74;21124;-59
2022/04/22 03:02:47;;;;;;;6.28;4.47;;;9.40;87.50;;;;;;1935700;74;21019;-59
2022/04/22 03:05:17;;;;;;;7.55;5.60;;;9.40;87.60;;;;;;1935742;74;21093;-59
2022/04/22 03:07:46;;;;;;;9.68;5.12;;;9.40;87.80;;;;;;1935799;74;21105;-60
2022/04/22 03:10:18;;;;;;;8.53;5.85;;;9.40;87.90;;;;;;1935750;74;21023;-59
2022/04/22 03:12:46;;;;;;;8.33;6.40;;;9.40;88.10;;;;;;1935729;74;21019;-59
2022/04/22 03:15:16;;;;;;;10.93;6.47;;;9.40;87.90;;;;;;1935602;74;21027;-59
2022/04/22 03:17:46;;;;;;;6.95;4.92;;;9.40;88.10;;;;;;1935692;74;20999;-59
2022/04/22 03:20:16;;;;;;;10.65;6.95;;;9.30;87.90;;;;;;1935653;74;21043;-59
2022/04/22 03:22:45;;;;;;;5.75;4.75;;;9.40;87.90;;;;;;1935658;74;21027;-59
2022/04/22 03:25:16;;;;;;;5.75;4.75;;;9.40;87.80;;;;;;1935696;74;21003;-59
2022/04/22 03:27:45;;;;;;;6.70;4.60;;;9.40;87.80;;;;;;1935774;74;21034;-59
2022/04/22 03:30:15;;;;;;;4.87;4.00;;;9.40;87.70;;;;;;1935695;73;21096;-59
2022/04/22 03:32:44;;;;;;;6.87;4.72;;;9.40;87.60;;;;;;1935760;74;21077;-59
2022/04/22 03:35:14;;;;;;;7.90;4.53;;;9.40;87.90;;;;;;1935539;74;21015;-59
2022/04/22 03:37:43;;;;;;;7.35;4.62;;;9.50;87.90;;;;;;1935611;74;21019;-59
2022/04/22 03:40:13;;;;;;;6.30;4.85;;;9.50;87.70;;;;;;1935703;74;21010;-59
2022/04/22 03:42:42;;;;;;;6.03;4.95;;;9.50;87.80;;;;;;1935747;74;21080;-59
2022/04/22 03:45:11;;;;;;;9.93;5.58;;;9.60;87.60;;;;;;1935634;74;20999;-59
2022/04/22 03:47:41;;;;;;;6.62;4.60;;;9.60;87.70;;;;;;1935766;74;20999;-59
2022/04/22 03:50:10;;;;;;;5.62;4.42;;;9.70;87.70;;;;;;1935735;74;20999;-59
2022/04/22 03:52:40;;;;;;;6.37;4.20;;;9.70;87.70;;;;;;1935834;74;21090;-59
2022/04/22 03:55:10;;;;;;;18.90;11.12;;;9.90;87.80;;;;;;1935767;74;21062;-59
2022/04/22 04:00:26;;;;;;;16.73;12.63;;;10.00;87.30;;;;;;1935691;74;21078;-59
2022/04/22 04:02:55;;;;;;;11.57;7.47;;;10.10;86.60;;;;;;1935830;74;21027;-59
2022/04/22 04:05:24;;;;;;;7.33;4.72;;;10.10;86.60;;;;;;1935572;74;21453;-59
2022/04/22 04:07:53;;;;;;;6.42;3.92;;;10.20;86.40;;;;;;1935593;74;21024;-59
2022/04/22 04:15:59;;;;;;;8.48;5.30;;;10.20;85.80;;;;;;1873187;74;21035;-59
2022/04/22 04:18:31;;;;;;;4.83;3.55;;;10.30;85.50;;;;;;1936000;74;21156;-59
2022/04/22 04:23:51;;;;;;;6.58;4.00;;;10.30;85.50;;;;;;1935842;74;21047;-59
2022/04/22 04:26:21;;;;;;;5.50;3.15;;;10.40;85.40;;;;;;1935648;74;21019;-59
2022/04/22 04:28:50;;;;;;;3.83;3.08;;;10.40;85.00;;;;;;1935543;74;21023;-59
2022/04/22 04:31:20;;;;;;;4.83;3.15;;;10.40;85.00;;;;;;1935588;74;21082;-59
2022/04/22 04:33:49;;;;;;;6.00;3.52;;;10.40;85.30;;;;;;1935564;74;21019;-59
2022/04/22 04:36:19;;;;;;;5.58;4.67;;;10.40;85.50;;;;;;1935559;74;21054;-59
2022/04/22 04:38:48;;;;;;;7.53;4.30;;;10.40;85.40;;;;;;1935738;74;21019;-61
2022/04/22 04:41:17;;;;;;;5.62;4.12;;;10.50;85.70;;;;;;1935642;74;21096;-61
2022/04/22 04:43:47;;;;;;;6.22;4.20;;;10.60;85.50;;;;;;1935783;74;21035;-61
2022/04/22 04:46:15;;;;;;;6.45;4.30;;;10.70;85.40;;;;;;1935647;74;21078;-61
2022/04/22 04:48:45;;;;;;;5.92;3.20;;;10.70;85.00;;;;;;1935623;74;21073;-61
2022/04/22 04:51:14;;;;;;;2.85;2.60;;;10.70;85.00;;;;;;1935671;74;21019;-61
2022/04/22 04:53:43;;;;;;;4.30;2.62;;;10.80;84.10;;;;;;1935770;74;21528;-61
2022/04/22 04:56:13;;;;;;;3.37;2.85;;;10.80;83.70;;;;;;1935702;74;21023;-61
2022/04/22 04:58:42;;;;;;;3.00;2.67;;;10.70;84.10;;;;;;1935658;74;21015;-61
2022/04/22 05:01:11;;;;;;;2.40;2.10;;;10.70;83.80;;;;;;1935701;74;21019;-61
2022/04/22 05:03:41;;;;;;;3.00;2.77;;;10.70;83.40;;;;;;1935662;74;21105;-61
2022/04/22 05:06:12;;;;;;;3.80;2.70;;;10.70;83.40;;;;;;1935498;74;21183;-61
2022/04/22 05:08:41;;;;;;;3.65;2.62;;;10.70;83.30;;;;;;1935893;74;21039;-61
2022/04/22 05:11:10;;;;;;;3.60;2.33;;;10.80;83.30;;;;;;1935534;74;20999;-61
2022/04/22 05:13:40;;;;;;;3.00;2.70;;;10.80;83.60;;;;;;1935631;74;21035;-61
2022/04/22 05:16:09;;;;;;;5.67;3.02;;;10.90;83.00;;;;;;1935525;74;21038;-61
2022/04/22 05:18:39;;;;;;;3.35;2.33;;;11.00;83.10;;;;;;1935636;74;21495;-61
2022/04/22 05:21:09;;;;;;;4.17;2.77;;;11.00;81.90;;;;;;1935590;74;21233;-61
2022/04/22 05:23:38;;;;;;;5.47;2.37;;;11.10;81.90;;;;;;1935504;74;21066;-61
2022/04/22 05:26:08;;;;;;;5.12;3.00;;;11.10;81.00;;;;;;1935512;74;21019;-61
2022/04/22 05:28:37;;;;;;;4.15;2.45;;;11.10;80.90;;;;;;1935545;74;21531;-61
2022/04/22 05:33:54;;;;;;;9.45;3.15;;;11.10;80.10;;;;;;1948671;74;21034;-61
2022/04/22 05:36:24;;;;;;;17.37;9.75;;;11.10;79.80;;;;;;1948623;73;21092;-60
2022/04/22 05:38:53;;;;;;;7.97;4.62;;;11.00;79.80;;;;;;1948849;74;21038;-61
2022/04/22 05:41:22;;;;;;;2.42;1.67;;;11.00;79.60;;;;;;1948818;74;21019;-61
2022/04/22 05:46:31;;;;;;;2.15;1.95;;;10.90;79.80;;;;;;1830047;77;21114;-61
2022/04/22 05:49:00;;;;;;;2.12;1.60;;;10.90;79.50;;;;;;1903497;75;21063;-61
2022/04/22 05:51:30;;;;;;;3.77;3.10;;;10.90;79.90;;;;;;1828985;78;21039;-61
2022/04/22 05:53:59;;;;;;;8.18;2.10;;;10.90;79.80;;;;;;1903580;75;21058;-61
2022/04/22 05:56:29;;;;;;;2.90;1.92;;;11.00;80.10;;;;;;1863232;76;21106;-61
2022/04/22 05:58:59;;;;;;;7.65;3.17;;;11.10;79.50;;;;;;1863293;76;21056;-61
2022/04/22 06:01:28;;;;;;;5.83;2.30;;;11.20;79.80;;;;;;1828893;78;21058;-61
2022/04/22 06:03:57;;;;;;;7.10;2.12;;;11.30;78.60;;;;;;1903421;75;21014;-60
2022/04/22 06:06:27;;;;;;;4.35;1.98;;;11.50;78.90;;;;;;1828972;78;21129;-61
2022/04/22 06:11:43;;;;;;;3.02;1.77;;;11.70;77.90;;;;;;1828984;77;21068;-60
2022/04/22 06:14:13;;;;;;;5.33;1.95;;;11.70;76.80;;;;;;1903542;75;21031;-61
2022/04/22 06:16:42;;;;;;;7.80;2.20;;;11.80;77.60;;;;;;1828711;77;21035;-61
2022/04/22 06:19:12;;;;;;;6.58;2.52;;;11.90;77.10;;;;;;1903490;75;21035;-61
2022/04/22 06:21:41;;;;;;;4.70;1.77;;;12.00;76.40;;;;;;1828823;78;21117;-61
2022/04/22 06:24:11;;;;;;;10.58;3.55;;;12.10;75.80;;;;;;1903469;74;21073;-61
2022/04/22 06:26:41;;;;;;;9.00;3.60;;;12.10;75.80;;;;;;1863162;76;21060;-61
2022/04/22 06:29:10;;;;;;;7.40;3.02;;;12.10;74.90;;;;;;1863154;76;21090;-61
2022/04/22 06:31:40;;;;;;;3.62;2.08;;;12.20;74.60;;;;;;1828928;78;21538;-61
2022/04/22 06:34:10;;;;;;;3.80;2.20;;;12.20;74.30;;;;;;1903521;75;21046;-61
2022/04/22 06:36:40;;;;;;;5.62;2.52;;;12.30;75.20;;;;;;1828876;77;21118;-60
2022/04/22 06:39:10;;;;;;;7.55;2.72;;;12.40;74.00;;;;;;1903620;75;21039;-61
2022/04/22 06:45:46;;;;;;;9.93;2.67;;;12.50;73.30;;;;;;1903512;75;21098;-60
2022/04/22 06:46:59;;;;;;;5.85;2.67;;;12.50;73.50;;;;;;1850904;77;21578;-60
2022/04/22 06:49:28;;;;;;;5.90;2.67;;;12.60;72.70;;;;;;1872242;77;21551;-60
2022/04/22 06:52:00;;;;;;;2.77;1.60;;;12.60;71.70;;;;;;1887356;75;21087;-60
2022/04/22 06:54:31;;;;;;;7.65;2.02;;;12.70;71.70;;;;;;1854907;77;21112;-60
2022/04/22 06:57:01;;;;;;;1.95;1.75;;;12.70;72.30;;;;;;1888243;76;21015;-60
2022/04/22 06:59:31;;;;;;;2.02;1.47;;;12.60;72.50;;;;;;1854894;77;21099;-60
2022/04/22 07:02:00;;;;;;;4.67;1.82;;;12.70;72.50;;;;;;1888215;76;21031;-60
2022/04/22 07:04:30;;;;;;;8.45;3.35;;;12.70;71.90;;;;;;1854818;77;21500;-60
2022/04/22 07:06:59;;;;;;;5.62;1.98;;;12.60;72.80;;;;;;1888220;76;21008;-61
2022/04/22 07:09:29;;;;;;;4.90;1.90;;;12.70;73.00;;;;;;1854814;76;21107;-60
2022/04/22 07:12:00;;;;;;;5.55;1.80;;;12.80;73.50;;;;;;1888154;76;21039;-60
2022/04/22 07:14:31;;;;;;;3.95;2.60;;;12.90;72.20;;;;;;1854805;77;21111;-60
2022/04/22 07:17:02;;;;;;;2.50;1.57;;;13.00;71.90;;;;;;1888302;76;21122;-60
2022/04/22 07:19:32;;;;;;;5.85;2.95;;;13.10;71.50;;;;;;1887065;76;21039;-60
2022/04/22 07:22:01;;;;;;;7.17;3.72;;;13.20;71.70;;;;;;1888202;76;21109;-60
2022/04/22 07:24:31;;;;;;;3.20;1.77;;;13.30;71.30;;;;;;1854826;77;21124;-60
2022/04/22 07:27:01;;;;;;;5.47;2.33;;;13.40;71.30;;;;;;1888237;76;21040;-60
2022/04/22 07:29:34;;;;;;;3.75;2.83;;;13.50;70.20;;;;;;1852221;77;21122;-59
2022/04/22 07:32:03;;;;;;;10.18;2.58;;;13.50;71.10;;;;;;1880817;75;21072;-58
2022/04/22 07:34:33;;;;;;;7.85;3.10;;;13.60;71.30;;;;;;1894395;75;21014;-58
2022/04/22 07:37:02;;;;;;;3.27;1.80;;;13.70;69.40;;;;;;1914017;75;21527;-59
2022/04/22 07:39:32;;;;;;;7.50;2.37;;;13.80;68.90;;;;;;1903688;75;21086;-58
2022/04/22 07:42:04;;;;;;;5.15;1.82;;;13.80;68.30;;;;;;1934029;73;21013;-59
2022/04/22 07:47:25;;;;;;;9.95;2.20;;;13.90;66.80;;;;;;1880806;74;21101;-57
2022/04/22 07:49:55;;;;;;;4.97;2.55;;;13.90;66.30;;;;;;1876629;75;20998;-56
2022/04/22 07:52:24;;;;;;;7.58;2.80;;;14.00;67.50;;;;;;1875497;73;21086;-57
2022/04/22 07:54:54;;;;;;;6.05;1.55;;;14.00;67.70;;;;;;1873868;75;21082;-58
2022/04/22 07:57:24;;;;;;;3.45;2.12;;;14.10;68.00;;;;;;1873728;76;21026;-58
2022/04/22 07:59:53;;;;;;;7.83;2.72;;;14.20;66.90;;;;;;1873766;76;21665;-58
2022/04/22 08:02:23;;;;;;;2.52;1.50;;;14.20;66.10;;;;;;1874022;76;21100;-60
2022/04/22 08:04:52;;;;;;;2.02;1.75;;;14.20;64.50;;;;;;1873908;76;21095;-58
2022/04/22 08:07:40;;;;;;;7.90;2.40;;;14.10;63.30;;;;;;1873836;76;21413;-58
2022/04/22 08:10:10;;;;;;;7.55;2.20;;;14.20;64.10;;;;;;1873826;76;21054;-59
2022/04/22 08:12:39;;;;;;;2.67;2.08;;;14.20;64.60;;;;;;1873837;76;21245;-59
2022/04/22 08:15:09;;;;;;;3.30;1.95;;;14.30;64.60;;;;;;1873653;76;21088;-58
2022/04/22 08:17:38;;;;;;;2.62;1.82;;;14.40;63.60;;;;;;1873765;75;21042;-60
2022/04/22 08:20:08;;;;;;;4.50;2.10;;;14.40;63.40;;;;;;1873693;76;21092;-62
2022/04/22 08:22:38;;;;;;;3.10;2.15;;;14.50;62.50;;;;;;1873832;76;21120;-61
2022/04/22 08:25:09;;;;;;;3.02;1.80;;;14.40;62.50;;;;;;1873729;76;21089;-61
2022/04/22 08:27:38;;;;;;;9.45;2.27;;;14.40;62.60;;;;;;1892413;75;21434;-61
2022/04/22 08:30:09;;;;;;;10.13;3.40;;;14.40;62.20;;;;;;1907496;74;21021;-59
2022/04/22 08:32:39;;;;;;;7.58;2.37;;;14.40;61.80;;;;;;1876093;75;21012;-58
2022/04/22 08:35:09;;;;;;;4.42;2.30;;;14.40;62.60;;;;;;1896222;75;20987;-61
2022/04/22 08:37:38;;;;;;;7.90;2.92;;;14.40;61.30;;;;;;1897885;75;21181;-59
2022/04/22 08:40:08;;;;;;;6.20;1.87;;;14.40;62.30;;;;;;1893564;74;21157;-58
2022/04/22 08:42:40;;;;;;;9.38;1.98;;;14.60;62.50;;;;;;1894235;75;21045;-61
2022/04/22 08:45:11;;;;;;;2.83;1.70;;;14.70;61.90;;;;;;1891889;75;21057;-59
2022/04/22 08:50:32;;;;;;;5.15;1.75;;;15.00;62.00;;;;;;1924717;73;21022;-62
2022/04/22 08:53:06;;;;;;;3.65;1.55;;;15.10;61.20;;;;;;1949591;73;21014;-59
2022/04/22 08:55:36;;;;;;;5.75;1.85;;;15.20;60.70;;;;;;1926809;73;21131;-59
2022/04/22 08:58:06;;;;;;;2.65;2.37;;;15.30;60.50;;;;;;1927277;73;21065;-59
2022/04/22 09:00:37;;;;;;;5.55;2.02;;;15.40;61.30;;;;;;1927352;73;21139;-58
2022/04/22 09:03:09;;;;;;;2.20;2.00;;;15.50;60.20;;;;;;1904925;73;21122;-59
2022/04/22 09:05:38;;;;;;;3.10;2.37;;;15.60;59.90;;;;;;1939041;73;21108;-57
2022/04/22 09:08:11;;;;;;;3.22;1.77;;;15.60;59.70;;;;;;1938007;73;21069;-57
2022/04/22 09:10:42;;;;;;;4.20;1.90;;;15.70;58.40;;;;;;1938355;72;21215;-59
2022/04/22 09:13:14;;;;;;;4.35;2.02;;;15.80;58.50;;;;;;1934057;72;21155;-57
2022/04/22 09:15:44;;;;;;;2.92;1.80;;;15.80;57.80;;;;;;1944442;73;21535;-59
2022/04/22 09:18:23;;;;;;;3.95;1.98;;;15.90;57.20;;;;;;1902225;73;21160;-58
2022/04/22 09:21:06;;;;;;;2.30;1.60;;;16.00;57.30;;;;;;1934558;73;21006;-57
2022/04/22 09:23:45;;;;;;;2.35;1.80;;;16.00;56.90;;;;;;1932566;73;21076;-57
2022/04/22 09:26:26;;;;;;;8.98;2.58;;;16.00;57.00;;;;;;1934926;73;21192;-57
2022/04/22 09:29:10;;;;;;;16.57;8.88;;;16.10;56.80;;;;;;1904471;74;21085;-57
2022/04/22 09:31:56;;;;;;;;;;;16.10;56.50;;;;;;1934272;73;21107;-56
2022/04/22 09:34:44;;;;;;;3.77;1.90;;;16.10;54.80;;;;;;1927706;72;20213;-58
2022/04/22 09:42:58;;;;;;;3.37;1.60;;;16.10;55.60;;;;;;1908599;74;21043;-63
2022/04/22 09:45:40;;;;;;;8.65;2.20;;;16.00;54.30;;;;;;1932869;73;21061;-59
2022/04/22 09:48:19;;;;;;;3.30;1.55;;;15.90;54.90;;;;;;1925911;73;21179;-62
2022/04/22 09:50:52;;;;;;;3.87;2.02;;;15.90;55.60;;;;;;1912843;74;21465;-60
2022/04/22 09:53:36;;;;;;;2.65;1.92;;;15.80;52.40;;;;;;1901955;74;21128;-63
2022/04/22 09:56:07;;;;;;;2.35;1.77;;;15.70;53.80;;;;;;1902703;75;21003;-58
2022/04/22 09:58:37;;;;;;;6.53;1.97;;;15.60;54.40;;;;;;1904059;74;21014;-60
2022/04/22 10:01:06;;;;;;;3.50;1.80;;;15.50;55.00;;;;;;1907405;74;21034;-61
2022/04/22 10:03:37;;;;;;;5.90;2.83;;;15.40;54.50;;;;;;1902160;75;21143;-61
2022/04/22 10:06:07;;;;;;;5.72;1.90;;;15.40;54.90;;;;;;1892410;74;21127;-62
2022/04/22 10:08:37;;;;;;;9.33;2.90;;;15.50;54.60;;;;;;1889094;73;21139;-62
2022/04/22 10:11:08;;;;;;;4.40;2.65;;;15.60;55.00;;;;;;1876064;75;21013;-65
2022/04/22 10:13:43;;;;;;;5.03;2.37;;;15.60;54.50;;;;;;1876037;76;21057;-63
2022/04/22 10:16:13;;;;;;;2.95;1.90;;;15.60;55.20;;;;;;1876432;75;21101;-58
2022/04/22 10:18:43;;;;;;;6.90;2.10;;;15.70;55.60;;;;;;1901334;74;21018;-60
2022/04/22 10:21:15;;;;;;;1.65;1.55;;;15.80;54.50;;;;;;1879156;74;21028;-61
2022/04/22 10:23:46;;;;;;;2.87;1.87;;;15.80;53.60;;;;;;1876189;75;21080;-60
2022/04/22 10:26:16;;;;;;;4.47;2.25;;;15.80;53.10;;;;;;1876311;76;21026;-62
2022/04/22 10:28:46;;;;;;;3.08;2.27;;;15.70;53.00;;;;;;1876117;76;21034;-60
2022/04/22 10:31:17;;;;;;;2.58;1.92;;;15.60;53.40;;;;;;1894753;75;21113;-61
2022/04/22 10:33:47;;;;;;;5.55;2.40;;;15.50;52.70;;;;;;1876176;76;21089;-59
2022/04/22 10:36:18;;;;;;;16.30;3.08;;;15.50;53.50;;;;;;1876212;75;21088;-59
2022/04/22 10:38:49;;;;;;;3.60;1.98;;;15.50;53.90;;;;;;1876137;75;21089;-62
2022/04/22 10:41:20;;;;;;;2.65;2.45;;;15.50;53.50;;;;;;1876147;74;21100;-61
2022/04/22 10:49:39;;;;;;;8.28;2.50;;;15.70;54.20;;;;;;1926079;74;21092;-60
2022/04/22 10:52:19;;;;;;;2.65;1.75;;;15.90;54.30;;;;;;1926399;73;21057;-63
2022/04/22 10:54:55;;;;;;;5.37;2.33;;;16.10;54.30;;;;;;1926384;74;21111;-58
2022/04/22 10:57:27;;;;;;;4.22;2.10;;;16.30;53.80;;;;;;1898445;75;21075;-57
2022/04/22 11:00:12;;;;;;;3.22;2.12;;;16.40;53.10;;;;;;1916387;74;21131;-58
2022/04/22 11:02:46;;;;;;;2.13;1.80;;;16.40;51.70;;;;;;1895374;74;21092;-57
2022/04/22 11:05:30;;;;;;;2.87;1.67;;;16.30;49.60;;;;;;1897104;75;21040;-57
2022/04/22 11:07:57;;;;;;;2.30;1.80;;;16.20;49.10;;;;;;1910317;74;21049;-58
2022/04/22 11:10:34;;;;;;;3.50;2.15;;;16.20;50.00;;;;;;1934373;73;21155;-59
2022/04/22 11:13:01;;;;;;;3.33;1.90;;;16.10;50.70;;;;;;1932234;73;21116;-59
2022/04/22 11:15:50;;;;;;;2.12;1.75;;;16.20;51.30;;;;;;1903863;73;21203;-57
2022/04/22 11:18:21;;;;;;;1.62;1.52;;;16.30;51.40;;;;;;1900721;74;21114;-58
2022/04/22 11:20:54;;;;;;;6.15;2.25;;;16.30;50.00;;;;;;1904685;74;21090;-59
2022/04/22 11:23:24;;;;;;;4.05;2.05;;;16.30;50.00;;;;;;1921772;74;21037;-57
2022/04/22 11:25:54;;;;;;;2.70;1.90;;;16.40;49.70;;;;;;1880980;74;21096;-57
2022/04/22 11:28:23;;;;;;;2.83;2.00;;;16.40;50.50;;;;;;1893673;74;21124;-58
2022/04/22 11:30:57;;;;;;;5.47;2.10;;;16.40;50.30;;;;;;1901372;75;21093;-57
2022/04/22 11:33:30;;;;;;;5.53;2.30;;;16.40;49.50;;;;;;1925861;74;21033;-57
2022/04/22 11:36:00;;;;;;;1.60;1.50;;;16.40;50.20;;;;;;1926528;74;21519;-58
2022/04/22 11:38:31;;;;;;;5.97;2.42;;;16.40;50.10;;;;;;1926408;73;21104;-56
2022/04/22 11:41:00;;;;;;;3.02;2.00;;;16.40;50.10;;;;;;1926354;74;21732;-57
2022/04/22 11:43:30;;;;;;;2.20;1.98;;;16.40;48.10;;;;;;1926487;74;21112;-57
2022/04/22 11:45:59;;;;;;;2.85;2.10;;;16.50;48.40;;;;;;1926440;74;21073;-57
2022/04/22 11:48:30;;;;;;;3.45;1.90;;;16.50;48.70;;;;;;1916734;73;21047;-57
2022/04/22 11:51:00;;;;;;;9.08;4.00;;;16.50;48.90;;;;;;1899251;75;21090;-60
2022/04/22 11:53:35;;;;;;;8.00;2.40;;;16.60;48.30;;;;;;1900339;75;20998;-60
2022/04/22 11:56:05;;;;;;;5.25;2.05;;;16.60;48.50;;;;;;1871127;75;21023;-60
2022/04/22 11:58:34;;;;;;;4.30;2.08;;;16.70;48.60;;;;;;1899277;75;21023;-60
2022/04/22 12:06:41;;;;;;;9.33;3.02;;;16.90;47.90;;;;;;1852758;77;21106;-60
2022/04/22 12:09:10;;;;;;;35.28;4.72;;;17.00;47.10;;;;;;1890431;73;21081;-59
2022/04/22 12:11:42;;;;;;;8.70;3.17;;;17.00;46.40;;;;;;1881317;75;21087;-60
2022/04/22 12:14:12;;;;;;;3.70;2.33;;;17.00;46.30;;;;;;1879959;76;20998;-59
2022/04/22 12:16:43;;;;;;;2.15;1.77;;;17.00;46.90;;;;;;1880200;76;21021;-60
2022/04/22 12:19:12;;;;;;;1.90;1.55;;;17.00;45.70;;;;;;1880140;76;21026;-60
2022/04/22 12:21:42;;;;;;;2.80;1.75;;;17.00;46.40;;;;;;1880301;76;21569;-60
2022/04/22 12:24:12;;;;;;;2.08;1.77;;;17.00;46.60;;;;;;1880190;76;20998;-60
2022/04/22 12:26:42;;;;;;;3.90;2.10;;;17.10;46.10;;;;;;1880051;76;21500;-60
2022/04/22 12:29:20;;;;;;;2.27;1.80;;;17.00;46.40;;;;;;1880254;76;21029;-59
2022/04/22 12:31:46;;;;;;;;;;;17.00;45.70;;;;;;1882065;76;21550;-59
2022/04/22 12:34:17;;;;;;;2.37;2.00;;;16.90;43.10;;;;;;1880149;76;20107;-60
2022/04/22 12:37:00;;;;;;;7.22;2.72;;;16.80;44.50;;;;;;1878487;76;21069;-60
2022/04/22 12:39:43;;;;;;;3.47;3.05;;;16.70;47.30;;;;;;1880131;75;21046;-60
2022/04/22 12:42:22;;;;;;;7.85;3.47;;;16.70;49.40;;;;;;1880153;76;21100;-59
2022/04/22 12:54:11;;;;;;;5.05;2.72;;;16.40;53.00;;;;;;1920846;75;21061;-59
2022/04/22 12:56:40;;;;;;;3.52;2.70;;;16.30;53.00;;;;;;1920809;75;21033;-60
2022/04/22 12:59:09;;;;;;;3.77;3.05;;;16.30;54.00;;;;;;1920659;75;21083;-59
2022/04/22 13:01:42;;;;;;;3.12;2.75;;;16.40;53.70;;;;;;1920759;75;21077;-59
2022/04/22 13:04:23;;;;;;;6.30;2.83;;;16.40;53.90;;;;;;1920888;75;21034;-59
2022/04/22 13:06:52;;;;;;;4.30;2.52;;;16.40;54.20;;;;;;1920102;75;21093;-59
2022/04/22 13:09:22;;;;;;;3.10;2.80;;;16.50;52.00;;;;;;1920968;75;21088;-59
2022/04/22 13:11:51;;;;;;;7.00;3.92;;;16.50;51.00;;;;;;1920750;75;21083;-59
2022/04/22 13:14:22;;;;;;;3.65;2.65;;;16.50;52.00;;;;;;1920718;75;21006;-59
2022/04/22 13:16:52;;;;;;;6.03;3.08;;;16.50;53.20;;;;;;1920728;75;21214;-59
2022/04/22 13:19:21;;;;;;;4.20;2.47;;;16.50;52.80;;;;;;1920844;73;21050;-60
2022/04/22 13:21:51;;;;;;;3.70;2.52;;;16.60;51.50;;;;;;1920998;74;21112;-60
2022/04/22 13:24:20;;;;;;;3.83;2.65;;;16.50;51.40;;;;;;1920801;73;21103;-60
2022/04/22 13:26:50;;;;;;;4.25;3.17;;;16.60;52.60;;;;;;1920720;75;21147;-60
2022/04/22 13:29:19;;;;;;;3.72;2.80;;;16.50;53.60;;;;;;1920785;75;21117;-60
2022/04/22 13:31:49;;;;;;;8.05;3.27;;;16.50;54.20;;;;;;1920878;75;21139;-60
2022/04/22 13:34:18;;;;;;;8.78;3.67;;;16.40;54.20;;;;;;1920792;74;21287;-60
2022/04/22 13:36:48;;;;;;;5.67;3.17;;;16.30;55.10;;;;;;1920735;75;21034;-60
2022/04/22 13:39:17;;;;;;;4.25;3.85;;;16.30;55.30;;;;;;1920718;75;21037;-60
2022/04/22 13:41:47;;;;;;;6.15;3.98;;;16.30;55.50;;;;;;1920831;75;21014;-60
2022/04/22 13:52:21;;;;;;;4.60;3.60;;;16.30;55.60;;;;;;1920788;75;21030;-60
2022/04/22 13:52:22;;;;;;;3.47;3.17;;;16.30;55.30;;;;;;1905075;75;21030;-60
2022/04/22 13:54:53;;;;;;;3.75;3.35;;;16.30;55.60;;;;;;1904984;74;21070;-60
2022/04/22 13:57:22;;;;;;;4.87;3.35;;;16.30;55.80;;;;;;1904893;75;21003;-60
2022/04/22 13:59:51;;;;;;;4.80;2.75;;;16.30;55.90;;;;;;1904940;75;21026;-60
2022/04/22 14:02:21;;;;;;;2.98;2.67;;;16.20;55.70;;;;;;1905029;75;21096;-60
2022/04/22 14:04:50;;;;;;;3.70;3.40;;;16.20;56.00;;;;;;1904941;75;21084;-60
2022/04/22 14:07:20;;;;;;;6.28;4.30;;;16.00;56.40;;;;;;1904878;75;21003;-60
2022/04/22 14:09:49;;;;;;;7.05;5.35;;;15.80;56.90;;;;;;1904975;75;21066;-60
2022/04/22 14:12:19;;;;;;;4.00;3.50;;;15.70;57.30;;;;;;1904912;75;21066;-60
2022/04/22 14:14:49;;;;;;;4.95;4.37;;;15.70;57.60;;;;;;1904813;75;21085;-60
2022/04/22 14:17:19;;;;;;;5.05;4.62;;;15.60;57.80;;;;;;1904997;75;21030;-60
2022/04/22 14:19:48;;;;;;;4.30;3.90;;;15.60;57.70;;;;;;1905035;75;21065;-60
2022/04/22 14:22:17;;;;;;;5.60;4.20;;;15.50;57.50;;;;;;1904984;75;21035;-60
2022/04/22 14:24:47;;;;;;;6.97;4.60;;;15.40;57.70;;;;;;1905008;74;21058;-60
2022/04/22 14:27:16;;;;;;;9.93;6.45;;;15.40;57.90;;;;;;1904913;75;21039;-60